Time;durP1;ratioP1;P1;durP2;ratioP2;P2;SDS_P1;SDS_P2;PMS_P1;PMS_P2;Temp;Humidity;BMP_temperature;BMP_pressure;BME280_temperature;BME280_humidity;BME280_pressure;Samples;Min_cycle;Max_cycle;Signal;HPM_P1;HPM_P2
2022/07/16 00:02:42;;;;;;;0.30;0.30;;;15.00;99.90;;;;;;4961115;28;20057;-83
2022/07/16 00:05:08;;;;;;;0.28;0.28;;;15.00;99.90;;;;;;4926373;28;20105;-82
2022/07/16 00:07:33;;;;;;;0.80;0.80;;;15.00;99.90;;;;;;4950826;28;20474;-82
2022/07/16 00:09:59;;;;;;;;;;;15.10;99.90;;;;;;4935267;28;20077;-82
2022/07/16 00:12:26;;;;;;;0.40;0.40;;;15.10;99.90;;;;;;4935343;28;20451;-81
2022/07/16 00:14:52;;;;;;;0.60;0.60;;;15.20;99.90;;;;;;4951551;28;20113;-84
2022/07/16 00:17:18;;;;;;;0.50;0.50;;;15.30;99.90;;;;;;4951181;28;20059;-81
2022/07/16 00:19:43;;;;;;;;;;;15.30;99.90;;;;;;4951489;28;20100;-82
2022/07/16 00:22:10;;;;;;;0.25;0.25;;;15.40;99.90;;;;;;4929975;28;19957;-82
2022/07/16 00:24:36;;;;;;;0.40;0.40;;;15.40;99.90;;;;;;4950605;28;20066;-84
2022/07/16 00:27:02;;;;;;;0.30;0.30;;;15.40;99.90;;;;;;4959671;28;20073;-82
2022/07/16 00:29:28;;;;;;;1.77;1.25;;;15.50;99.90;;;;;;4937877;29;20055;-82
2022/07/16 00:31:54;;;;;;;0.50;0.50;;;15.50;99.90;;;;;;4938666;28;20051;-82
2022/07/16 00:34:21;;;;;;;0.38;0.38;;;15.40;99.90;;;;;;4945100;28;20044;-86
2022/07/16 00:36:47;;;;;;;0.63;0.30;;;15.10;99.90;;;;;;4951429;28;20396;-81
2022/07/16 00:39:13;;;;;;;;;;;14.90;99.90;;;;;;4950300;28;20168;-82
2022/07/16 00:41:41;;;;;;;0.25;0.25;;;14.80;99.90;;;;;;4950259;28;20016;-80
2022/07/16 00:44:10;;;;;;;0.40;0.40;;;14.70;99.90;;;;;;4949862;28;20193;-86
2022/07/16 00:46:36;;;;;;;0.20;0.20;;;14.60;99.90;;;;;;4950603;28;20051;-81
2022/07/16 00:49:03;;;;;;;0.30;0.30;;;14.50;99.90;;;;;;4955071;28;20051;-83
2022/07/16 00:51:29;;;;;;;0.40;0.40;;;14.50;99.90;;;;;;4953325;28;20408;-78
2022/07/16 00:53:55;;;;;;;0.45;0.40;;;14.40;99.90;;;;;;4934817;28;20051;-81
2022/07/16 00:56:23;;;;;;;0.30;0.30;;;14.40;99.90;;;;;;4965264;28;20035;-81
2022/07/16 00:58:49;;;;;;;0.30;0.30;;;14.40;99.90;;;;;;4954272;28;20074;-81
2022/07/16 01:01:16;;;;;;;0.30;0.30;;;14.40;99.90;;;;;;4952086;28;20492;-77
2022/07/16 01:03:44;;;;;;;0.40;0.40;;;14.40;99.90;;;;;;4960748;28;20054;-81
2022/07/16 01:06:10;;;;;;;0.30;0.30;;;14.40;99.90;;;;;;4959868;28;20176;-80
2022/07/16 01:08:39;;;;;;;0.50;0.50;;;14.40;99.90;;;;;;4951040;28;20395;-83
2022/07/16 01:11:08;;;;;;;0.30;0.30;;;14.40;99.90;;;;;;4950428;28;20091;-81
2022/07/16 01:13:39;;;;;;;0.47;0.40;;;14.40;99.90;;;;;;4949691;28;20134;-82
2022/07/16 01:16:05;;;;;;;0.60;0.40;;;14.50;99.90;;;;;;4960621;28;20101;-82
2022/07/16 01:18:30;;;;;;;;;;;14.40;99.90;;;;;;4950068;28;20051;-80
2022/07/16 01:20:56;;;;;;;0.30;0.30;;;14.40;99.90;;;;;;4950937;28;19929;-80
2022/07/16 01:23:23;;;;;;;2.25;2.15;;;14.50;99.90;;;;;;4953492;28;20096;-83
2022/07/16 01:25:50;;;;;;;0.20;0.20;;;14.50;99.90;;;;;;4966210;28;20130;-80
2022/07/16 01:28:16;;;;;;;1.05;1.05;;;14.50;99.90;;;;;;4956061;28;20039;-79
2022/07/16 01:30:43;;;;;;;0.30;0.30;;;14.40;99.90;;;;;;4955724;28;20051;-80
2022/07/16 01:33:36;;;;;;;0.30;0.30;;;14.50;99.90;;;;;;4965898;28;20392;-78
2022/07/16 01:36:07;;;;;;;6.60;2.05;;;14.50;99.90;;;;;;4951814;28;20373;-83
2022/07/16 01:38:36;;;;;;;5.93;1.50;;;14.40;99.90;;;;;;4951298;28;20050;-80
2022/07/16 01:41:02;;;;;;;0.30;0.30;;;14.50;99.90;;;;;;4949124;28;20043;-79
2022/07/16 01:43:29;;;;;;;0.50;0.50;;;14.50;99.90;;;;;;4950493;28;20047;-82
2022/07/16 01:45:55;;;;;;;0.57;0.57;;;14.50;99.90;;;;;;4951701;28;20046;-83
2022/07/16 01:48:21;;;;;;;;;;;14.50;99.90;;;;;;4952099;28;20039;-79
2022/07/16 01:50:48;;;;;;;0.25;0.25;;;14.50;99.90;;;;;;4952503;28;20429;-80
2022/07/16 01:53:14;;;;;;;0.30;0.30;;;14.50;99.90;;;;;;4961684;28;20043;-79
2022/07/16 01:55:41;;;;;;;0.75;0.75;;;14.50;99.90;;;;;;4964735;28;20472;-81
2022/07/16 01:58:09;;;;;;;0.30;0.30;;;14.50;99.90;;;;;;4953025;28;20395;-80
2022/07/16 02:00:37;;;;;;;0.30;0.30;;;14.40;99.90;;;;;;4951111;28;20570;-79
2022/07/16 02:03:03;;;;;;;0.43;0.43;;;14.40;99.90;;;;;;4949831;28;20047;-80
2022/07/16 02:05:29;;;;;;;0.40;0.40;;;14.40;99.90;;;;;;4950243;28;20048;-80
2022/07/16 02:07:55;;;;;;;1.90;1.75;;;14.30;99.90;;;;;;4951918;28;20039;-79
2022/07/16 02:10:21;;;;;;;;;;;14.30;99.90;;;;;;4950823;28;20044;-82
2022/07/16 02:12:47;;;;;;;0.55;0.50;;;14.30;99.90;;;;;;4951166;28;19929;-77
2022/07/16 02:15:13;;;;;;;0.30;0.30;;;14.20;99.90;;;;;;4952614;28;20070;-79
2022/07/16 02:17:39;;;;;;;;;;;14.20;99.90;;;;;;4949521;28;20043;-81
2022/07/16 02:20:06;;;;;;;0.40;0.40;;;14.10;99.90;;;;;;4949449;28;20264;-81
2022/07/16 02:22:32;;;;;;;0.35;0.35;;;14.00;99.90;;;;;;4953459;28;20488;-80
2022/07/16 02:24:59;;;;;;;0.38;0.38;;;14.00;99.90;;;;;;4950789;28;20313;-76
2022/07/16 02:27:24;;;;;;;0.40;0.40;;;13.80;99.90;;;;;;4951092;28;20071;-78
2022/07/16 02:29:50;;;;;;;0.38;0.38;;;13.80;99.90;;;;;;4954421;28;20063;-81
2022/07/16 02:32:16;;;;;;;0.28;0.28;;;13.70;99.90;;;;;;4955640;28;20054;-80
2022/07/16 02:34:42;;;;;;;;;;;13.60;99.90;;;;;;4959379;28;20370;-80
2022/07/16 02:37:07;;;;;;;0.30;0.30;;;13.60;99.90;;;;;;4949020;28;19934;-80
2022/07/16 02:39:33;;;;;;;0.50;0.50;;;13.50;99.90;;;;;;4948556;28;20043;-79
2022/07/16 02:41:59;;;;;;;0.57;0.57;;;13.50;99.90;;;;;;4949718;28;20043;-82
2022/07/16 02:44:26;;;;;;;1.23;1.20;;;13.40;99.90;;;;;;4948708;28;20039;-79
2022/07/16 02:46:51;;;;;;;0.30;0.30;;;13.40;99.90;;;;;;4949337;28;20477;-78
2022/07/16 02:49:17;;;;;;;0.38;0.38;;;13.30;99.90;;;;;;4948749;28;20118;-80
2022/07/16 02:51:43;;;;;;;0.30;0.30;;;13.30;99.90;;;;;;4954298;28;20057;-82
2022/07/16 02:54:09;;;;;;;0.50;0.50;;;13.20;99.90;;;;;;4949760;28;20062;-77
2022/07/16 02:56:34;;;;;;;0.30;0.30;;;13.20;99.90;;;;;;4953200;28;20047;-79
2022/07/16 02:59:00;;;;;;;0.28;0.28;;;13.20;99.90;;;;;;4952173;28;20057;-77
2022/07/16 03:01:26;;;;;;;0.40;0.40;;;13.10;99.90;;;;;;4948594;28;20101;-82
2022/07/16 03:03:51;;;;;;;0.40;0.40;;;13.10;99.90;;;;;;4950234;28;20097;-86
2022/07/16 03:06:18;;;;;;;0.30;0.30;;;13.00;99.90;;;;;;4954500;28;20046;-81
2022/07/16 03:08:44;;;;;;;0.30;0.30;;;13.00;99.90;;;;;;4952177;28;20047;-79
2022/07/16 03:11:10;;;;;;;0.43;0.43;;;13.00;99.90;;;;;;4951070;28;20511;-80
2022/07/16 03:13:35;;;;;;;0.60;0.60;;;13.00;99.90;;;;;;4953369;28;20047;-79
2022/07/16 03:16:01;;;;;;;0.40;0.40;;;13.00;99.90;;;;;;4967691;28;20054;-80
2022/07/16 03:18:27;;;;;;;0.40;0.40;;;13.10;99.90;;;;;;4936788;29;20492;-80
2022/07/16 03:20:53;;;;;;;0.40;0.40;;;13.00;99.90;;;;;;4951386;28;20488;-78
2022/07/16 03:23:18;;;;;;;0.40;0.40;;;13.00;99.90;;;;;;4955707;28;20134;-78
2022/07/16 03:25:44;;;;;;;0.30;0.30;;;13.00;99.90;;;;;;4951782;28;20432;-82
2022/07/16 03:28:10;;;;;;;0.30;0.30;;;13.00;99.90;;;;;;4959387;28;20046;-81
2022/07/16 03:30:36;;;;;;;0.25;0.25;;;13.10;99.90;;;;;;4938674;29;20063;-82
2022/07/16 03:33:02;;;;;;;0.73;0.73;;;13.10;99.90;;;;;;4948304;28;20046;-80
2022/07/16 03:35:28;;;;;;;0.73;0.73;;;13.10;99.90;;;;;;4951854;28;20101;-78
2022/07/16 03:40:38;;;;;;;0.73;0.73;;;13.10;99.90;;;;;;4950909;28;20059;-77
2022/07/16 03:43:04;;;;;;;0.40;0.40;;;13.20;99.90;;;;;;4952109;28;20051;-82
2022/07/16 03:45:30;;;;;;;;;;;13.30;99.90;;;;;;4951863;28;20043;-82
2022/07/16 03:47:55;;;;;;;0.30;0.30;;;13.30;99.90;;;;;;4952134;28;19973;-77
2022/07/16 03:50:21;;;;;;;0.38;0.38;;;13.30;99.90;;;;;;4952036;28;20451;-82
2022/07/16 03:52:47;;;;;;;0.40;0.40;;;13.30;99.90;;;;;;4957515;28;20135;-79
2022/07/16 03:55:13;;;;;;;0.40;0.40;;;13.30;99.90;;;;;;4950719;28;20535;-84
2022/07/16 03:57:40;;;;;;;0.40;0.40;;;13.20;99.90;;;;;;4955026;28;20039;-81
2022/07/16 04:00:08;;;;;;;0.43;0.43;;;13.20;99.90;;;;;;4952935;28;20051;-79
2022/07/16 04:02:34;;;;;;;0.40;0.40;;;13.20;99.90;;;;;;4950953;28;20528;-77
2022/07/16 04:04:59;;;;;;;0.40;0.40;;;13.20;99.90;;;;;;4953218;28;20114;-79
2022/07/16 04:07:26;;;;;;;0.30;0.30;;;13.30;99.90;;;;;;4957112;28;20445;-82
2022/07/16 04:09:51;;;;;;;;;;;13.20;99.90;;;;;;4950523;28;20190;-82
2022/07/16 04:12:17;;;;;;;0.30;0.30;;;13.20;99.90;;;;;;4951236;28;20009;-79
2022/07/16 04:14:42;;;;;;;0.40;0.40;;;13.20;99.90;;;;;;4956531;28;20039;-82
2022/07/16 04:17:08;;;;;;;0.40;0.40;;;13.20;99.90;;;;;;4956898;28;20424;-78
2022/07/16 04:19:34;;;;;;;0.30;0.30;;;13.20;99.90;;;;;;4941127;28;20100;-80
2022/07/16 04:21:59;;;;;;;0.40;0.40;;;13.20;99.90;;;;;;4934625;28;20487;-76
2022/07/16 04:24:25;;;;;;;0.40;0.40;;;13.20;99.90;;;;;;4950618;28;20406;-81
2022/07/16 04:26:51;;;;;;;;;;;13.10;99.90;;;;;;4962677;28;20399;-78
2022/07/16 04:29:17;;;;;;;0.47;0.47;;;13.20;99.90;;;;;;4962960;28;19918;-79
2022/07/16 04:31:42;;;;;;;0.47;0.40;;;13.20;99.90;;;;;;4951501;28;20059;-81
2022/07/16 04:34:08;;;;;;;0.88;0.88;;;13.30;99.90;;;;;;4941064;28;20504;-81
2022/07/16 04:36:34;;;;;;;0.82;0.82;;;13.40;99.90;;;;;;4943988;28;20603;-77
2022/07/16 04:38:59;;;;;;;0.30;0.30;;;13.40;99.90;;;;;;4951325;28;20047;-79
2022/07/16 04:41:25;;;;;;;0.30;0.30;;;13.50;99.90;;;;;;4934461;28;20164;-75
2022/07/16 04:43:51;;;;;;;0.40;0.40;;;13.60;99.90;;;;;;4951068;28;20055;-78
2022/07/16 04:46:16;;;;;;;0.32;0.32;;;13.70;99.90;;;;;;4950386;28;20078;-80
2022/07/16 04:48:42;;;;;;;0.40;0.40;;;13.80;99.90;;;;;;4950087;28;20047;-79
2022/07/16 04:51:07;;;;;;;0.30;0.30;;;13.80;99.90;;;;;;4954543;28;20053;-79
2022/07/16 04:53:36;;;;;;;0.55;0.55;;;14.00;99.90;;;;;;4950526;28;20054;-77
2022/07/16 04:56:01;;;;;;;0.50;0.50;;;14.10;99.90;;;;;;4942488;28;20129;-77
2022/07/16 04:58:27;;;;;;;0.32;0.32;;;14.20;99.90;;;;;;4937547;28;20118;-77
2022/07/16 05:00:53;;;;;;;0.35;0.35;;;14.30;99.90;;;;;;4952702;28;20507;-77
2022/07/16 05:03:18;;;;;;;0.32;0.32;;;14.40;99.90;;;;;;4950475;28;20130;-81
2022/07/16 05:05:44;;;;;;;;;;;14.30;99.90;;;;;;4956884;28;20051;-79
2022/07/16 05:08:10;;;;;;;1.85;1.50;;;14.30;99.90;;;;;;4952774;28;19923;-78
2022/07/16 05:10:36;;;;;;;0.20;0.20;;;14.20;99.90;;;;;;4949036;28;20219;-77
2022/07/16 05:13:03;;;;;;;0.38;0.38;;;14.20;99.90;;;;;;4950551;28;20117;-78
2022/07/16 05:15:30;;;;;;;0.30;0.30;;;14.30;99.90;;;;;;4952963;28;20039;-78
2022/07/16 05:17:56;;;;;;;0.30;0.30;;;14.40;99.90;;;;;;4950154;28;20491;-77
2022/07/16 05:20:22;;;;;;;0.68;0.68;;;14.40;99.90;;;;;;4951375;28;20223;-78
2022/07/16 05:22:47;;;;;;;;;;;14.40;99.90;;;;;;4954907;28;20043;-78
2022/07/16 05:25:15;;;;;;;0.30;0.30;;;14.40;99.90;;;;;;4949207;28;19933;-78
2022/07/16 05:27:41;;;;;;;0.40;0.40;;;14.50;99.90;;;;;;4952394;28;20043;-78
2022/07/16 05:30:09;;;;;;;0.40;0.40;;;14.50;99.90;;;;;;4955348;28;20113;-76
2022/07/16 05:32:36;;;;;;;1.58;0.80;;;14.50;99.90;;;;;;4940226;28;20383;-78
2022/07/16 05:35:02;;;;;;;0.45;0.45;;;14.50;99.90;;;;;;4958228;28;20043;-76
2022/07/16 05:37:28;;;;;;;0.28;0.28;;;14.50;99.90;;;;;;4962919;28;21243;-76
2022/07/16 05:39:53;;;;;;;0.30;0.30;;;14.50;99.90;;;;;;4933145;28;20130;-75
2022/07/16 05:42:19;;;;;;;0.40;0.40;;;14.60;99.90;;;;;;4949764;28;20047;-79
2022/07/16 05:44:45;;;;;;;0.30;0.30;;;14.70;99.90;;;;;;4933679;28;20120;-80
2022/07/16 05:47:10;;;;;;;;;;;14.80;99.90;;;;;;4950208;28;20043;-77
2022/07/16 05:49:36;;;;;;;0.30;0.30;;;14.80;99.90;;;;;;4950714;28;19983;-76
2022/07/16 05:52:02;;;;;;;0.50;0.50;;;14.70;99.90;;;;;;4954243;28;20114;-78
2022/07/16 05:54:28;;;;;;;0.35;0.35;;;14.50;99.90;;;;;;4950530;28;20039;-77
2022/07/16 05:56:53;;;;;;;0.30;0.30;;;14.40;99.90;;;;;;4963093;28;20053;-78
2022/07/16 05:59:19;;;;;;;;;;;14.40;99.90;;;;;;4954395;28;20039;-79
2022/07/16 06:01:44;;;;;;;0.55;0.55;;;14.20;99.90;;;;;;4957015;28;19918;-78
2022/07/16 06:04:10;;;;;;;0.35;0.35;;;14.20;99.90;;;;;;4955543;28;20047;-79
2022/07/16 06:06:36;;;;;;;;;;;14.20;99.90;;;;;;4955800;28;20142;-78
2022/07/16 06:09:02;;;;;;;0.30;0.30;;;14.30;99.90;;;;;;4949389;28;19922;-76
2022/07/16 06:11:27;;;;;;;0.30;0.30;;;14.30;99.90;;;;;;4948910;28;20055;-79
2022/07/16 06:13:53;;;;;;;;;;;14.40;99.90;;;;;;4949688;28;20435;-76
2022/07/16 06:16:20;;;;;;;0.30;0.30;;;14.60;99.90;;;;;;4967346;28;19918;-78
2022/07/16 06:18:46;;;;;;;0.20;0.20;;;14.60;99.90;;;;;;4938483;28;20062;-78
2022/07/16 06:21:12;;;;;;;0.20;0.20;;;14.70;99.90;;;;;;4933437;28;20392;-79
2022/07/16 06:23:38;;;;;;;0.28;0.28;;;14.80;99.90;;;;;;4937207;28;20050;-79
2022/07/16 06:26:03;;;;;;;0.20;0.20;;;14.90;99.90;;;;;;4952753;28;20479;-76
2022/07/16 06:28:29;;;;;;;0.30;0.30;;;14.90;99.90;;;;;;4954405;28;20047;-77
2022/07/16 06:30:55;;;;;;;0.20;0.20;;;15.00;99.90;;;;;;4952560;28;20734;-76
2022/07/16 06:33:20;;;;;;;0.30;0.30;;;15.10;99.90;;;;;;4949662;28;20503;-75
2022/07/16 06:35:46;;;;;;;0.20;0.20;;;15.20;99.90;;;;;;4948639;28;20505;-79
2022/07/16 06:38:12;;;;;;;;;;;15.20;99.90;;;;;;4949476;28;20046;-77
2022/07/16 06:40:41;;;;;;;0.30;0.30;;;15.30;99.90;;;;;;4948266;28;19918;-78
2022/07/16 06:43:07;;;;;;;0.30;0.30;;;15.40;99.90;;;;;;4950785;28;20131;-78
2022/07/16 06:45:33;;;;;;;0.30;0.30;;;15.40;99.90;;;;;;4953824;28;20074;-78
2022/07/16 06:47:59;;;;;;;0.30;0.30;;;15.40;99.90;;;;;;4952777;28;20054;-78
2022/07/16 06:50:24;;;;;;;;;;;15.60;99.90;;;;;;4955990;28;20565;-77
2022/07/16 06:52:50;;;;;;;8.18;0.80;;;15.50;99.90;;;;;;4966475;28;19942;-77
2022/07/16 06:55:16;;;;;;;;;;;15.40;99.90;;;;;;4968061;28;20045;-77
2022/07/16 06:57:42;;;;;;;0.63;0.63;;;15.50;99.90;;;;;;4942987;29;19989;-77
2022/07/16 07:00:08;;;;;;;0.30;0.30;;;15.50;99.90;;;;;;4970378;28;20039;-78
2022/07/16 07:02:34;;;;;;;0.30;0.30;;;15.50;99.90;;;;;;4960959;28;20047;-75
2022/07/16 07:05:00;;;;;;;0.40;0.40;;;15.60;99.90;;;;;;4937806;28;20400;-79
2022/07/16 07:07:25;;;;;;;0.32;0.32;;;15.80;99.90;;;;;;4953267;28;20059;-78
2022/07/16 07:09:51;;;;;;;0.20;0.20;;;15.90;99.90;;;;;;4952172;28;20108;-75
2022/07/16 07:12:17;;;;;;;0.15;0.15;;;15.90;99.90;;;;;;4966526;28;20563;-75
2022/07/16 07:14:42;;;;;;;;;;;15.90;99.90;;;;;;4957870;28;20073;-77
2022/07/16 07:17:08;;;;;;;0.30;0.30;;;16.00;99.90;;;;;;4957480;28;19919;-74
2022/07/16 07:19:34;;;;;;;0.20;0.20;;;16.10;99.90;;;;;;4952258;28;20042;-75
2022/07/16 07:22:00;;;;;;;0.20;0.20;;;16.20;99.90;;;;;;4959491;28;20502;-77
2022/07/16 07:24:26;;;;;;;0.25;0.25;;;16.30;99.90;;;;;;4955878;28;20048;-75
2022/07/16 07:26:51;;;;;;;0.40;0.40;;;16.60;99.90;;;;;;4961450;28;20053;-74
2022/07/16 07:29:17;;;;;;;;;;;17.00;99.90;;;;;;4958271;28;20049;-77
2022/07/16 07:31:43;;;;;;;0.20;0.20;;;17.50;99.90;;;;;;4963974;28;20394;-75
2022/07/16 07:34:08;;;;;;;;;;;17.40;99.90;;;;;;4964345;28;20070;-75
2022/07/16 07:36:34;;;;;;;0.30;0.30;;;17.30;99.90;;;;;;4951441;28;20005;-76
2022/07/16 07:38:59;;;;;;;;;;;17.20;99.90;;;;;;4952876;28;20051;-77
2022/07/16 07:41:25;;;;;;;0.60;0.60;;;17.00;99.90;;;;;;4950922;28;19926;-76
2022/07/16 07:43:51;;;;;;;;;;;17.00;99.90;;;;;;4952155;28;20096;-76
2022/07/16 07:46:16;;;;;;;0.40;0.40;;;17.20;99.90;;;;;;4951619;28;20394;-76
2022/07/16 07:48:42;;;;;;;0.20;0.20;;;17.20;99.90;;;;;;4951590;28;20058;-76
2022/07/16 07:51:09;;;;;;;;;;;17.10;99.90;;;;;;4954254;28;20053;-77
2022/07/16 07:53:36;;;;;;;0.30;0.30;;;17.00;99.90;;;;;;4951445;28;19922;-77
2022/07/16 07:56:05;;;;;;;0.20;0.20;;;17.00;99.90;;;;;;4959225;28;20057;-78
2022/07/16 07:58:30;;;;;;;0.20;0.20;;;17.00;99.90;;;;;;4947201;28;20050;-78
2022/07/16 08:00:56;;;;;;;;;;;17.00;99.90;;;;;;4954335;28;20043;-76
2022/07/16 08:03:22;;;;;;;0.20;0.20;;;17.10;99.90;;;;;;4951468;28;19922;-76
2022/07/16 08:05:48;;;;;;;;;;;17.20;99.90;;;;;;4951534;28;20081;-78
2022/07/16 08:08:13;;;;;;;0.55;0.45;;;17.20;99.90;;;;;;4956327;28;19972;-77
2022/07/16 08:10:39;;;;;;;;;;;17.30;99.90;;;;;;4950386;28;20113;-79
2022/07/16 08:13:05;;;;;;;0.30;0.30;;;17.50;99.90;;;;;;4951183;28;20038;-79
2022/07/16 08:15:31;;;;;;;0.20;0.20;;;17.50;99.90;;;;;;4939194;28;20063;-76
2022/07/16 08:17:57;;;;;;;2.20;0.82;;;17.50;99.90;;;;;;4950898;28;20054;-75
2022/07/16 08:20:23;;;;;;;;;;;17.60;99.90;;;;;;4935472;28;20553;-76
2022/07/16 08:22:49;;;;;;;0.22;0.22;;;17.80;99.90;;;;;;4954958;28;19919;-79
2022/07/16 08:27:59;;;;;;;0.32;0.32;;;17.90;99.90;;;;;;4961857;28;20058;-78
2022/07/16 08:30:25;;;;;;;0.30;0.30;;;17.80;99.90;;;;;;4954259;28;20047;-77
2022/07/16 08:32:51;;;;;;;0.20;0.20;;;17.70;99.90;;;;;;4963895;28;20051;-79
2022/07/16 08:35:17;;;;;;;;;;;17.70;99.90;;;;;;4940965;28;20065;-79
2022/07/16 08:37:45;;;;;;;0.30;0.30;;;17.60;99.90;;;;;;4951903;28;19918;-78
2022/07/16 08:40:18;;;;;;;0.20;0.20;;;17.70;99.90;;;;;;4949900;28;20114;-77
2022/07/16 08:42:44;;;;;;;0.20;0.20;;;17.70;99.90;;;;;;4951527;28;20412;-77
2022/07/16 08:45:13;;;;;;;0.30;0.30;;;17.80;99.90;;;;;;4950958;28;20050;-78
2022/07/16 08:47:39;;;;;;;0.20;0.20;;;17.80;99.90;;;;;;4935143;28;20047;-77
2022/07/16 08:50:08;;;;;;;;;;;17.80;99.90;;;;;;4962030;28;20105;-78
2022/07/16 08:52:40;;;;;;;0.30;0.30;;;17.80;99.90;;;;;;4954666;28;19929;-76
2022/07/16 08:55:07;;;;;;;0.30;0.30;;;17.60;99.90;;;;;;4959127;28;20043;-79
2022/07/16 08:57:34;;;;;;;0.20;0.20;;;17.50;99.90;;;;;;4945158;28;20047;-77
2022/07/16 09:00:00;;;;;;;0.93;0.93;;;17.60;99.90;;;;;;4964273;28;20109;-79
2022/07/16 09:02:26;;;;;;;;;;;17.80;99.90;;;;;;4934944;29;20051;-79
2022/07/16 09:04:52;;;;;;;0.30;0.30;;;18.00;99.90;;;;;;4949995;28;19918;-76
2022/07/16 09:07:18;;;;;;;;;;;18.10;99.90;;;;;;4950421;28;20492;-80
2022/07/16 09:09:47;;;;;;;0.70;0.63;;;18.30;99.90;;;;;;4934069;28;20009;-77
2022/07/16 09:12:33;;;;;;;0.30;0.30;;;18.40;99.90;;;;;;4949951;28;20063;-75
2022/07/16 09:14:59;;;;;;;0.35;0.35;;;18.40;99.90;;;;;;4934952;29;20131;-79
2022/07/16 09:17:25;;;;;;;0.22;0.22;;;18.40;99.90;;;;;;4950358;28;20122;-75
2022/07/16 09:19:51;;;;;;;;;;;18.40;99.90;;;;;;4951583;28;20040;-76
2022/07/16 09:22:16;;;;;;;0.25;0.25;;;18.40;99.90;;;;;;4953638;28;20272;-76
2022/07/16 09:24:52;;;;;;;;;;;18.60;99.90;;;;;;4950574;28;20075;-80
2022/07/16 09:27:17;;;;;;;0.30;0.30;;;18.90;99.90;;;;;;4950317;28;20402;-77
2022/07/16 09:29:51;;;;;;;;;;;18.90;99.90;;;;;;4956082;28;20047;-76
2022/07/16 09:32:34;;;;;;;0.28;0.28;;;18.60;99.90;;;;;;4948053;28;19922;-77
2022/07/16 09:35:18;;;;;;;0.32;0.32;;;18.40;99.90;;;;;;4948550;28;20047;-78
2022/07/16 09:37:48;;;;;;;0.40;0.40;;;18.20;99.90;;;;;;4957040;28;20055;-76
2022/07/16 09:40:15;;;;;;;0.30;0.30;;;18.10;99.90;;;;;;4956335;28;20120;-76
2022/07/16 09:42:41;;;;;;;0.32;0.32;;;18.10;99.90;;;;;;4934908;28;20043;-77
2022/07/16 09:45:18;;;;;;;0.73;0.73;;;18.20;99.90;;;;;;4951191;28;20480;-76
2022/07/16 09:47:44;;;;;;;0.32;0.32;;;18.50;99.90;;;;;;4936860;28;20195;-76
2022/07/16 09:50:09;;;;;;;;;;;18.70;99.90;;;;;;4950899;28;20043;-78
2022/07/16 09:52:35;;;;;;;2.22;1.08;;;18.70;99.90;;;;;;4952132;28;19997;-77
2022/07/16 09:55:01;;;;;;;;;;;18.40;99.90;;;;;;4953404;28;20488;-78
2022/07/16 09:57:29;;;;;;;0.30;0.30;;;18.30;99.90;;;;;;4963243;28;19926;-76
2022/07/16 09:59:57;;;;;;;0.40;0.40;;;18.40;99.90;;;;;;4949850;28;20043;-77
2022/07/16 10:02:23;;;;;;;0.30;0.30;;;18.50;99.90;;;;;;4934450;29;20054;-77
2022/07/16 10:04:50;;;;;;;0.30;0.30;;;18.80;99.90;;;;;;4949650;28;20118;-77
2022/07/16 10:07:18;;;;;;;0.40;0.40;;;19.10;99.90;;;;;;4957986;28;20047;-76
2022/07/16 10:09:44;;;;;;;0.30;0.30;;;19.30;99.90;;;;;;4950168;28;20404;-77
2022/07/16 10:12:15;;;;;;;0.30;0.30;;;19.50;99.90;;;;;;4949084;28;20047;-75
2022/07/16 10:14:44;;;;;;;0.32;0.32;;;19.60;99.90;;;;;;4933670;28;20055;-76
2022/07/16 10:17:22;;;;;;;0.20;0.20;;;19.50;99.90;;;;;;4949747;28;20043;-72
2022/07/16 10:20:11;;;;;;;0.30;0.30;;;19.30;99.90;;;;;;4954021;28;20041;-76
2022/07/16 10:22:40;;;;;;;0.20;0.20;;;19.30;99.90;;;;;;4962885;28;20535;-75
2022/07/16 10:25:12;;;;;;;0.30;0.30;;;19.30;99.90;;;;;;4971210;28;20467;-75
2022/07/16 10:27:38;;;;;;;0.30;0.30;;;19.40;99.90;;;;;;4955100;28;20048;-77
2022/07/16 10:30:13;;;;;;;;;;;19.60;99.90;;;;;;4966393;28;20051;-76
2022/07/16 10:33:02;;;;;;;0.25;0.25;;;19.70;99.90;;;;;;4970193;28;19962;-76
2022/07/16 10:36:03;;;;;;;0.20;0.20;;;19.70;99.90;;;;;;4952496;28;20063;-78
2022/07/16 10:38:28;;;;;;;0.40;0.40;;;19.80;99.90;;;;;;4952286;28;20092;-76
2022/07/16 10:41:13;;;;;;;;;;;19.90;99.90;;;;;;4954050;28;20051;-75
2022/07/16 10:43:39;;;;;;;0.30;0.30;;;20.00;99.90;;;;;;4952701;28;19968;-75
2022/07/16 10:46:06;;;;;;;0.30;0.30;;;20.00;99.00;;;;;;4952383;28;20075;-74
2022/07/16 10:48:38;;;;;;;0.30;0.30;;;20.00;99.90;;;;;;4952549;28;20262;-76
2022/07/16 10:51:23;;;;;;;0.20;0.20;;;19.80;99.90;;;;;;4955713;28;20053;-76
2022/07/16 10:53:58;;;;;;;0.22;0.22;;;19.50;99.90;;;;;;4952070;28;20043;-77
2022/07/16 10:56:33;;;;;;;0.30;0.30;;;19.40;99.90;;;;;;4944388;29;20047;-75
2022/07/16 10:58:59;;;;;;;0.20;0.20;;;19.20;99.90;;;;;;4955871;28;20113;-77
2022/07/16 11:01:24;;;;;;;;;;;19.00;99.90;;;;;;4964881;28;20055;-76
2022/07/16 11:03:53;;;;;;;0.30;0.30;;;19.10;99.90;;;;;;4952026;28;19924;-75
2022/07/16 11:06:21;;;;;;;0.32;0.32;;;19.20;99.90;;;;;;4958971;28;20075;-73
2022/07/16 11:08:52;;;;;;;0.30;0.30;;;19.40;99.90;;;;;;4952368;28;20047;-76
2022/07/16 11:11:18;;;;;;;0.30;0.30;;;19.40;99.90;;;;;;4934967;28;20493;-75
2022/07/16 11:13:46;;;;;;;0.22;0.22;;;19.60;99.90;;;;;;4952110;28;20455;-77
2022/07/16 11:16:12;;;;;;;0.30;0.30;;;19.90;99.90;;;;;;4951981;28;20054;-75
2022/07/16 11:18:39;;;;;;;0.20;0.20;;;19.80;99.90;;;;;;4936165;28;20396;-77
2022/07/16 11:21:09;;;;;;;0.20;0.20;;;19.40;98.90;;;;;;4951557;28;20039;-74
2022/07/16 11:23:56;;;;;;;0.40;0.40;;;19.30;99.70;;;;;;4955254;28;20086;-75
2022/07/16 11:26:22;;;;;;;0.20;0.20;;;19.30;99.90;;;;;;4957197;28;20488;-77
2022/07/16 11:28:59;;;;;;;0.30;0.30;;;19.30;99.20;;;;;;4961251;28;20047;-75
2022/07/16 11:31:30;;;;;;;0.30;0.30;;;19.40;98.00;;;;;;4952074;28;20069;-74
2022/07/16 11:34:16;;;;;;;0.52;0.52;;;19.50;98.20;;;;;;4965920;28;20050;-75
2022/07/16 11:36:53;;;;;;;0.32;0.32;;;19.60;99.90;;;;;;4951671;28;20366;-78
2022/07/16 11:39:22;;;;;;;0.30;0.30;;;19.80;99.80;;;;;;4950656;28;20392;-78
2022/07/16 11:41:50;;;;;;;0.30;0.30;;;19.90;96.80;;;;;;4951076;28;20047;-73
2022/07/16 11:44:18;;;;;;;0.30;0.30;;;20.00;99.70;;;;;;4935278;28;20051;-77
2022/07/16 11:47:05;;;;;;;0.40;0.40;;;20.10;97.20;;;;;;4951910;28;20069;-73
2022/07/16 11:49:39;;;;;;;0.73;0.73;;;20.00;97.00;;;;;;4952383;28;20503;-75
2022/07/16 11:52:20;;;;;;;0.93;0.93;;;20.10;96.40;;;;;;4954215;28;20051;-76
2022/07/16 11:54:46;;;;;;;0.30;0.30;;;19.90;94.90;;;;;;4952735;28;20431;-74
2022/07/16 11:57:12;;;;;;;0.30;0.30;;;19.90;95.40;;;;;;4969150;28;20425;-76
2022/07/16 11:59:47;;;;;;;0.35;0.35;;;20.00;94.70;;;;;;4936306;28;20222;-77
2022/07/16 12:02:18;;;;;;;0.30;0.30;;;20.20;93.50;;;;;;4957162;28;20047;-75
2022/07/16 12:04:50;;;;;;;0.30;0.30;;;20.60;95.10;;;;;;4952045;28;20051;-74
2022/07/16 12:07:38;;;;;;;0.22;0.22;;;20.80;93.60;;;;;;4950266;28;20539;-76
2022/07/16 12:10:06;;;;;;;1.27;1.20;;;20.80;93.30;;;;;;4953377;28;20066;-73
2022/07/16 12:12:34;;;;;;;0.30;0.30;;;20.70;93.70;;;;;;4950864;28;20055;-75
2022/07/16 12:15:17;;;;;;;0.38;0.38;;;20.80;92.30;;;;;;4954875;28;20050;-77
2022/07/16 12:17:45;;;;;;;0.25;0.25;;;21.00;93.50;;;;;;4951077;28;20542;-76
2022/07/16 12:20:24;;;;;;;0.70;0.70;;;21.30;91.80;;;;;;4952690;28;20090;-74
2022/07/16 12:22:58;;;;;;;0.20;0.20;;;21.10;90.30;;;;;;4955234;28;20051;-76
2022/07/16 12:25:30;;;;;;;0.85;0.43;;;20.80;90.50;;;;;;4950086;28;20456;-77
2022/07/16 12:28:09;;;;;;;0.40;0.40;;;20.80;90.80;;;;;;4952177;28;20050;-76
2022/07/16 12:30:35;;;;;;;0.30;0.30;;;20.90;90.50;;;;;;4938701;28;20082;-76
2022/07/16 12:33:02;;;;;;;0.30;0.30;;;20.70;90.90;;;;;;4963825;28;20074;-76
2022/07/16 12:35:42;;;;;;;0.60;0.60;;;20.30;92.30;;;;;;4952253;28;20043;-74
2022/07/16 12:38:28;;;;;;;1.15;1.05;;;20.10;93.10;;;;;;4950709;28;20039;-76
2022/07/16 12:40:54;;;;;;;0.30;0.30;;;20.20;92.10;;;;;;4948644;28;20084;-76
2022/07/16 12:43:19;;;;;;;;;;;20.40;90.70;;;;;;4934990;29;20154;-76
2022/07/16 12:45:45;;;;;;;0.60;0.60;;;20.60;91.80;;;;;;4935018;28;19918;-75
2022/07/16 12:48:11;;;;;;;;;;;20.30;89.80;;;;;;4951870;28;20122;-74
2022/07/16 12:50:38;;;;;;;0.30;0.30;;;20.10;92.30;;;;;;4950757;28;20376;-76
2022/07/16 12:53:03;;;;;;;0.30;0.30;;;20.40;90.80;;;;;;4952383;28;20050;-77
2022/07/16 13:00:58;;;;;;;0.35;0.35;;;21.60;91.40;;;;;;4961381;28;20048;-75
2022/07/16 13:03:24;;;;;;;0.20;0.20;;;21.90;87.30;;;;;;4955376;28;20051;-75
2022/07/16 13:05:49;;;;;;;0.30;0.30;;;21.70;86.30;;;;;;4941820;28;20066;-74
2022/07/16 13:08:15;;;;;;;0.40;0.40;;;21.30;86.40;;;;;;4950375;28;20126;-76
2022/07/16 13:10:41;;;;;;;;;;;20.90;88.70;;;;;;4935041;28;20055;-76
2022/07/16 13:13:07;;;;;;;0.22;0.22;;;20.90;89.20;;;;;;4962561;28;19925;-74